Time;durP1;ratioP1;P1;durP2;ratioP2;P2;SDS_P1;SDS_P2;PMS_P1;PMS_P2;Temp;Humidity;BMP_temperature;BMP_pressure;BME280_temperature;BME280_humidity;BME280_pressure;Samples;Min_cycle;Max_cycle;Signal;HPM_P1;HPM_P2
2023/07/30 00:01:20;;;;;;;11.63;4.75;;;16.20;99.90;;;;;;5016810;28;20073;-77
2023/07/30 00:03:45;;;;;;;11.55;4.65;;;16.20;99.90;;;;;;5016786;28;20041;-77
2023/07/30 00:06:11;;;;;;;11.77;4.20;;;16.10;99.90;;;;;;5016800;28;20457;-77
2023/07/30 00:08:36;;;;;;;12.13;4.95;;;16.10;99.90;;;;;;5016912;28;20124;-77
2023/07/30 00:11:02;;;;;;;10.45;4.82;;;16.00;99.90;;;;;;5032953;28;20498;-77
2023/07/30 00:13:28;;;;;;;9.93;4.07;;;16.00;99.90;;;;;;5016681;28;20132;-77
2023/07/30 00:15:53;;;;;;;13.20;4.25;;;15.90;99.90;;;;;;5016642;28;20083;-77
2023/07/30 00:18:19;;;;;;;13.15;4.82;;;15.90;99.90;;;;;;5033022;28;20033;-77
2023/07/30 00:20:44;;;;;;;11.10;4.53;;;15.90;99.90;;;;;;5032916;28;20073;-77
2023/07/30 00:23:10;;;;;;;15.00;4.40;;;15.80;99.90;;;;;;5032917;28;20045;-77
2023/07/30 00:25:36;;;;;;;15.23;4.65;;;15.80;99.90;;;;;;5032833;28;20037;-77
2023/07/30 00:28:01;;;;;;;14.07;4.13;;;15.80;99.90;;;;;;5032805;28;20037;-77
2023/07/30 00:30:27;;;;;;;15.00;4.20;;;15.80;99.90;;;;;;5032639;28;20038;-77
2023/07/30 00:32:52;;;;;;;13.10;4.22;;;15.80;99.90;;;;;;5032976;28;20175;-77
2023/07/30 00:35:18;;;;;;;14.38;4.28;;;15.80;99.90;;;;;;5032957;28;20029;-77
2023/07/30 00:37:43;;;;;;;16.88;4.55;;;15.70;99.90;;;;;;5016204;28;20557;-77
2023/07/30 00:40:09;;;;;;;16.77;5.07;;;15.70;99.90;;;;;;5032784;28;20068;-77
2023/07/30 00:42:35;;;;;;;16.73;4.93;;;15.70;99.90;;;;;;5016102;28;20514;-77
2023/07/30 00:45:01;;;;;;;17.58;4.65;;;15.70;99.90;;;;;;5032491;28;20124;-77
2023/07/30 00:47:27;;;;;;;14.93;4.40;;;15.70;99.90;;;;;;5032655;28;20033;-77
2023/07/30 00:49:53;;;;;;;15.10;4.88;;;15.70;99.90;;;;;;5032172;28;20087;-77
2023/07/30 00:52:21;;;;;;;16.02;4.95;;;15.60;99.90;;;;;;5015321;28;20041;-77
2023/07/30 00:54:51;;;;;;;17.65;5.25;;;15.60;99.90;;;;;;5015882;28;20033;-77
2023/07/30 00:57:19;;;;;;;12.80;5.30;;;15.60;99.90;;;;;;5032327;28;20041;-77
2023/07/30 00:59:46;;;;;;;13.38;4.55;;;15.60;99.90;;;;;;5032229;28;20065;-77
2023/07/30 01:02:12;;;;;;;18.80;5.20;;;15.50;99.90;;;;;;5032510;28;20051;-77
2023/07/30 01:04:39;;;;;;;16.70;5.00;;;15.50;99.90;;;;;;5032204;28;20123;-77
2023/07/30 01:07:05;;;;;;;15.70;5.30;;;15.50;99.90;;;;;;5015754;28;20041;-77
2023/07/30 01:09:31;;;;;;;15.93;5.43;;;15.50;99.90;;;;;;5015604;28;20037;-77
2023/07/30 01:11:59;;;;;;;14.70;5.10;;;15.40;99.90;;;;;;5032352;28;20030;-77
2023/07/30 01:14:26;;;;;;;16.25;5.40;;;15.40;99.90;;;;;;5015796;28;20033;-77
2023/07/30 01:16:52;;;;;;;17.05;5.32;;;15.40;99.90;;;;;;5015575;28;20112;-77
2023/07/30 01:19:18;;;;;;;20.80;5.20;;;15.40;99.90;;;;;;5031969;28;20052;-77
2023/07/30 01:21:44;;;;;;;17.30;4.93;;;15.40;99.90;;;;;;5031886;28;20045;-77
2023/07/30 01:24:09;;;;;;;17.30;5.10;;;15.40;99.90;;;;;;5015539;28;20041;-77
2023/07/30 01:26:42;;;;;;;20.35;5.35;;;15.40;99.90;;;;;;5015724;28;20049;-77
2023/07/30 01:29:15;;;;;;;17.25;5.25;;;15.40;99.90;;;;;;5015460;28;20052;-77
2023/07/30 01:31:41;;;;;;;20.38;5.63;;;15.40;99.90;;;;;;5015372;28;20145;-77
2023/07/30 01:34:09;;;;;;;16.02;4.35;;;15.30;99.90;;;;;;5015382;28;20486;-77
2023/07/30 01:36:36;;;;;;;19.25;5.38;;;15.30;99.90;;;;;;5015671;28;20045;-77
2023/07/30 01:39:02;;;;;;;17.25;5.32;;;15.30;99.90;;;;;;5015346;28;20033;-77
2023/07/30 01:41:27;;;;;;;18.52;5.00;;;15.30;99.90;;;;;;5015281;28;20037;-77
2023/07/30 01:43:54;;;;;;;15.52;4.57;;;15.30;99.90;;;;;;5015554;28;20045;-77
2023/07/30 01:46:19;;;;;;;16.45;4.45;;;15.30;99.90;;;;;;5031798;28;20040;-77
2023/07/30 01:48:45;;;;;;;19.05;4.82;;;15.30;99.90;;;;;;5015557;28;20045;-77
2023/07/30 01:51:10;;;;;;;19.70;5.00;;;15.30;99.90;;;;;;5031505;28;20384;-77
2023/07/30 01:53:36;;;;;;;16.35;4.88;;;15.30;99.90;;;;;;5015233;28;20038;-77
2023/07/30 01:56:02;;;;;;;18.80;4.75;;;15.30;99.90;;;;;;5031636;28;20029;-77
2023/07/30 01:58:27;;;;;;;12.45;4.70;;;15.30;99.90;;;;;;5015199;28;20030;-77
2023/07/30 02:00:53;;;;;;;17.00;4.55;;;15.30;99.90;;;;;;5032610;28;20077;-77
2023/07/30 02:03:18;;;;;;;18.52;4.97;;;15.30;99.90;;;;;;5015622;28;20498;-77
2023/07/30 02:05:44;;;;;;;16.10;4.80;;;15.30;99.90;;;;;;5019044;28;20044;-77
2023/07/30 02:08:10;;;;;;;15.60;4.50;;;15.30;99.90;;;;;;5035459;28;20046;-77
2023/07/30 02:10:35;;;;;;;16.90;4.10;;;15.30;99.90;;;;;;5035378;28;20048;-77
2023/07/30 02:13:01;;;;;;;16.40;4.63;;;15.30;99.90;;;;;;5019220;28;20383;-77
2023/07/30 02:15:26;;;;;;;17.48;4.82;;;15.30;99.90;;;;;;5018797;28;20083;-77
2023/07/30 02:17:52;;;;;;;15.50;4.38;;;15.30;99.90;;;;;;5035767;28;20116;-77
2023/07/30 02:20:18;;;;;;;15.30;4.68;;;15.30;99.90;;;;;;5018692;28;20087;-77
2023/07/30 02:22:43;;;;;;;16.13;4.63;;;15.30;99.90;;;;;;5035238;28;20104;-77
2023/07/30 02:25:09;;;;;;;17.20;4.22;;;15.30;99.90;;;;;;5018672;28;20108;-77
2023/07/30 02:27:34;;;;;;;14.82;4.20;;;15.30;99.90;;;;;;5035103;28;20041;-77
2023/07/30 02:30:00;;;;;;;18.20;4.40;;;15.30;99.90;;;;;;5034927;28;20052;-77
2023/07/30 02:32:25;;;;;;;14.98;4.18;;;15.30;99.90;;;;;;5018493;28;20037;-77
2023/07/30 02:34:51;;;;;;;16.30;4.05;;;15.30;99.90;;;;;;5034969;28;20034;-77
2023/07/30 02:37:17;;;;;;;14.95;3.88;;;15.30;99.90;;;;;;5018505;28;20064;-77
2023/07/30 02:39:42;;;;;;;13.70;4.00;;;15.40;99.90;;;;;;5018329;28;20033;-77
2023/07/30 02:42:08;;;;;;;15.80;4.43;;;15.50;99.90;;;;;;5018392;28;20041;-77
2023/07/30 02:44:33;;;;;;;13.15;4.15;;;15.50;99.90;;;;;;5035081;28;20034;-77
2023/07/30 02:46:59;;;;;;;18.15;4.18;;;15.50;99.90;;;;;;5034707;28;20079;-77
2023/07/30 02:49:25;;;;;;;16.27;4.65;;;15.60;99.90;;;;;;5034706;28;20045;-77
2023/07/30 02:51:50;;;;;;;14.85;4.28;;;15.50;99.90;;;;;;5018239;28;20485;-77
2023/07/30 02:54:16;;;;;;;17.83;4.53;;;15.60;99.90;;;;;;5034620;28;20048;-77
2023/07/30 02:56:43;;;;;;;10.70;3.75;;;15.60;99.90;;;;;;5034627;28;20030;-77
2023/07/30 02:59:08;;;;;;;18.48;4.35;;;15.50;99.90;;;;;;5018031;28;20050;-77
2023/07/30 03:01:34;;;;;;;13.68;3.50;;;15.40;99.90;;;;;;5017956;28;20123;-77
2023/07/30 03:03:59;;;;;;;14.55;4.22;;;15.40;99.90;;;;;;5034670;28;20045;-78
2023/07/30 03:06:25;;;;;;;16.88;3.80;;;15.40;99.90;;;;;;5034643;28;20041;-78
2023/07/30 03:08:51;;;;;;;17.80;3.90;;;15.40;99.90;;;;;;5034370;28;20053;-78
2023/07/30 03:11:16;;;;;;;15.75;3.88;;;15.40;99.90;;;;;;5034229;28;20096;-78
2023/07/30 03:13:42;;;;;;;14.25;4.35;;;15.40;99.90;;;;;;5034260;28;20044;-78
2023/07/30 03:16:07;;;;;;;16.17;3.80;;;15.40;99.90;;;;;;5016757;28;20410;-78
2023/07/30 03:18:33;;;;;;;15.20;3.83;;;15.30;99.90;;;;;;5034420;28;20104;-78
2023/07/30 03:21:00;;;;;;;16.33;4.60;;;15.30;99.90;;;;;;5034271;28;20410;-78
2023/07/30 03:23:26;;;;;;;15.32;3.97;;;15.30;99.90;;;;;;5034060;28;20053;-78
2023/07/30 03:25:51;;;;;;;12.57;3.67;;;15.30;99.90;;;;;;5017780;28;20033;-78
2023/07/30 03:28:17;;;;;;;18.77;3.88;;;15.30;99.90;;;;;;5017727;28;20502;-78
2023/07/30 03:30:42;;;;;;;10.07;3.20;;;15.30;99.90;;;;;;5033785;28;20044;-78
2023/07/30 03:33:08;;;;;;;15.05;3.53;;;15.30;99.90;;;;;;5034168;28;20056;-78
2023/07/30 03:35:34;;;;;;;13.73;3.40;;;15.20;99.90;;;;;;5017377;28;20037;-78
2023/07/30 03:37:59;;;;;;;13.02;4.30;;;15.20;99.90;;;;;;5034061;28;20123;-78
2023/07/30 03:40:25;;;;;;;14.07;3.63;;;15.20;99.90;;;;;;5017924;28;20618;-78
2023/07/30 03:42:51;;;;;;;17.67;3.30;;;15.10;99.90;;;;;;5034007;28;20467;-78
2023/07/30 03:45:17;;;;;;;13.48;4.00;;;15.20;99.90;;;;;;5033641;28;20041;-78
2023/07/30 03:47:42;;;;;;;17.35;3.80;;;15.20;99.90;;;;;;5017096;28;20040;-78
2023/07/30 03:50:08;;;;;;;14.48;4.47;;;15.10;99.90;;;;;;5033295;28;20040;-78
2023/07/30 03:52:34;;;;;;;16.40;3.80;;;15.10;99.90;;;;;;5033514;28;20083;-78
2023/07/30 03:54:59;;;;;;;10.07;3.28;;;15.10;99.90;;;;;;5016981;28;20041;-77
2023/07/30 03:57:25;;;;;;;17.50;3.65;;;15.10;99.90;;;;;;5033475;28;20069;-77
2023/07/30 03:59:51;;;;;;;15.68;3.33;;;15.10;99.90;;;;;;5033589;28;20037;-77
2023/07/30 04:02:16;;;;;;;21.63;4.75;;;15.10;99.90;;;;;;5016844;28;20038;-77
2023/07/30 04:04:44;;;;;;;16.58;3.22;;;15.00;99.90;;;;;;5016888;28;20116;-77
2023/07/30 04:07:10;;;;;;;13.05;3.65;;;15.10;99.90;;;;;;5016731;28;20034;-77
2023/07/30 04:09:36;;;;;;;13.75;3.70;;;15.00;99.90;;;;;;5016480;28;20182;-77
2023/07/30 04:12:01;;;;;;;19.08;3.95;;;15.00;99.90;;;;;;5033164;28;20033;-77
2023/07/30 04:14:27;;;;;;;13.20;3.50;;;14.90;99.90;;;;;;5016574;28;20124;-77
2023/07/30 04:16:53;;;;;;;15.27;3.50;;;14.90;99.90;;;;;;5033046;28;20037;-77
2023/07/30 04:19:19;;;;;;;17.27;3.67;;;14.90;99.90;;;;;;5016550;28;20048;-77
2023/07/30 04:21:44;;;;;;;18.08;3.70;;;14.90;99.90;;;;;;5033118;28;20041;-77
2023/07/30 04:24:10;;;;;;;13.32;3.63;;;14.80;99.90;;;;;;5032924;28;20442;-77
2023/07/30 04:26:36;;;;;;;18.77;4.05;;;14.90;99.90;;;;;;5016206;28;20099;-77
2023/07/30 04:29:01;;;;;;;14.35;3.58;;;14.90;99.90;;;;;;5032798;28;20044;-77
2023/07/30 04:31:27;;;;;;;12.57;4.07;;;14.90;99.90;;;;;;5032648;28;20047;-77
2023/07/30 04:33:52;;;;;;;13.35;3.65;;;14.90;99.90;;;;;;5016378;28;20033;-77
2023/07/30 04:36:18;;;;;;;14.07;3.72;;;14.90;99.90;;;;;;5016279;28;20498;-77
2023/07/30 04:38:43;;;;;;;11.00;4.03;;;14.90;99.90;;;;;;5032984;28;20073;-77
2023/07/30 04:41:09;;;;;;;13.48;3.90;;;15.00;99.90;;;;;;5016375;28;20552;-77
2023/07/30 04:43:35;;;;;;;19.50;3.90;;;15.00;99.90;;;;;;5032618;28;20037;-77
2023/07/30 04:46:00;;;;;;;18.67;4.25;;;15.10;99.90;;;;;;5032780;28;20151;-77
2023/07/30 04:48:26;;;;;;;16.38;3.88;;;15.10;99.90;;;;;;5016364;28;20044;-77
2023/07/30 04:50:52;;;;;;;15.25;4.00;;;15.20;99.90;;;;;;5015778;28;20573;-77
2023/07/30 04:53:18;;;;;;;20.40;4.10;;;15.20;99.90;;;;;;5032402;28;20034;-77
2023/07/30 04:55:44;;;;;;;16.02;4.10;;;15.20;99.90;;;;;;5015873;28;20030;-77
2023/07/30 04:58:09;;;;;;;14.98;4.13;;;15.30;99.90;;;;;;5016152;28;20091;-77
2023/07/30 05:00:35;;;;;;;18.70;4.18;;;15.30;99.90;;;;;;5015736;28;20040;-77
2023/07/30 05:03:01;;;;;;;15.85;4.00;;;15.40;99.90;;;;;;5015833;28;20040;-77
2023/07/30 05:05:26;;;;;;;19.35;4.35;;;15.40;99.90;;;;;;5016075;28;20064;-77
2023/07/30 05:07:52;;;;;;;16.27;3.80;;;15.50;99.90;;;;;;5032453;28;20133;-77
2023/07/30 05:10:17;;;;;;;12.80;3.95;;;15.50;99.90;;;;;;5015561;28;20429;-77
2023/07/30 05:12:43;;;;;;;14.50;3.75;;;15.60;99.90;;;;;;5015959;28;20121;-77
2023/07/30 05:15:09;;;;;;;17.23;4.15;;;15.60;99.90;;;;;;5032085;28;20041;-77
2023/07/30 05:17:34;;;;;;;19.15;4.65;;;15.60;99.90;;;;;;5032066;28;20046;-77
2023/07/30 05:20:00;;;;;;;15.55;3.85;;;15.60;99.90;;;;;;5032193;28;20076;-77
2023/07/30 05:22:25;;;;;;;19.45;4.22;;;15.70;99.90;;;;;;5032021;28;20041;-77
2023/07/30 05:24:51;;;;;;;17.88;3.92;;;15.70;99.90;;;;;;5015589;28;20033;-77
2023/07/30 05:27:17;;;;;;;16.90;4.25;;;15.70;99.90;;;;;;5015516;28;20465;-77
2023/07/30 05:29:42;;;;;;;18.10;4.25;;;15.80;99.90;;;;;;5032008;28;20128;-77
2023/07/30 05:32:08;;;;;;;20.95;4.43;;;15.80;99.90;;;;;;5015456;28;20034;-77
2023/07/30 05:34:34;;;;;;;21.58;4.43;;;15.80;99.90;;;;;;5031846;28;20060;-77
2023/07/30 05:37:00;;;;;;;22.67;4.65;;;15.90;99.90;;;;;;5015332;28;20034;-77
2023/07/30 05:39:26;;;;;;;20.75;4.80;;;15.90;99.90;;;;;;5020120;28;20041;-77
2023/07/30 05:41:51;;;;;;;24.67;4.75;;;16.00;99.90;;;;;;5038430;28;20045;-77
2023/07/30 05:44:17;;;;;;;19.48;4.68;;;16.00;99.90;;;;;;5022175;28;20048;-77
2023/07/30 05:46:43;;;;;;;17.48;4.53;;;16.00;99.90;;;;;;5021885;28;20038;-77
2023/07/30 05:49:08;;;;;;;22.58;5.00;;;16.10;99.90;;;;;;5021807;28;20041;-77
2023/07/30 05:51:34;;;;;;;18.33;4.78;;;16.10;99.90;;;;;;5021648;28;20037;-77
2023/07/30 05:54:00;;;;;;;20.35;4.85;;;16.20;99.90;;;;;;5021832;28;20043;-77
2023/07/30 05:56:25;;;;;;;17.30;4.97;;;16.20;99.90;;;;;;5038267;28;20052;-77
2023/07/30 05:58:51;;;;;;;23.75;5.07;;;16.20;99.90;;;;;;5022024;28;20060;-77
2023/07/30 06:01:17;;;;;;;16.60;5.30;;;16.20;99.90;;;;;;5038186;28;20505;-77
2023/07/30 06:03:43;;;;;;;20.13;4.68;;;16.40;99.90;;;;;;5021676;28;20128;-77
2023/07/30 06:06:08;;;;;;;23.20;4.63;;;16.40;99.90;;;;;;5038406;28;20130;-77
2023/07/30 06:08:34;;;;;;;22.40;5.43;;;16.40;99.90;;;;;;5021635;28;20037;-77
2023/07/30 06:11:03;;;;;;;19.23;4.30;;;16.40;99.90;;;;;;5037948;28;20041;-77
2023/07/30 06:13:29;;;;;;;23.58;5.28;;;16.50;99.90;;;;;;5038387;28;20033;-77
2023/07/30 06:15:55;;;;;;;20.05;4.57;;;16.40;99.90;;;;;;5038108;28;20124;-77
2023/07/30 06:18:21;;;;;;;29.42;5.32;;;16.40;99.90;;;;;;5038279;28;20180;-77
2023/07/30 06:20:47;;;;;;;25.25;5.22;;;16.50;99.90;;;;;;5037932;28;20128;-77
2023/07/30 06:23:12;;;;;;;18.02;4.57;;;16.50;99.90;;;;;;5021769;28;20120;-77
2023/07/30 06:25:38;;;;;;;20.00;5.03;;;16.60;99.90;;;;;;5021533;28;20041;-77
2023/07/30 06:28:05;;;;;;;25.27;5.18;;;16.50;99.90;;;;;;5021730;28;20033;-77
2023/07/30 06:30:31;;;;;;;17.33;4.90;;;16.60;99.90;;;;;;5037816;28;20044;-77
2023/07/30 06:32:57;;;;;;;18.33;4.45;;;16.60;99.90;;;;;;5037954;28;20563;-77
2023/07/30 06:35:23;;;;;;;21.20;5.10;;;16.60;99.90;;;;;;5037941;28;20045;-77
2023/07/30 06:37:50;;;;;;;20.45;5.18;;;16.70;99.90;;;;;;5037954;28;20038;-77
2023/07/30 06:40:16;;;;;;;23.60;4.78;;;16.70;99.90;;;;;;5037851;28;20068;-77
2023/07/30 06:42:42;;;;;;;24.15;5.50;;;16.80;99.90;;;;;;5021584;28;20061;-77
2023/07/30 06:45:08;;;;;;;25.08;4.35;;;16.80;99.90;;;;;;5037878;28;20071;-77
2023/07/30 06:47:34;;;;;;;23.38;4.78;;;16.90;99.90;;;;;;5021304;28;20037;-77
2023/07/30 06:49:59;;;;;;;18.63;4.78;;;17.00;99.90;;;;;;5020023;28;20065;-77
2023/07/30 06:52:25;;;;;;;20.60;4.75;;;17.00;99.90;;;;;;5018185;28;20042;-77
2023/07/30 06:54:50;;;;;;;22.63;5.03;;;17.00;99.90;;;;;;5034892;28;20045;-77
2023/07/30 06:57:16;;;;;;;18.05;4.63;;;17.10;99.90;;;;;;5034623;28;20410;-77
2023/07/30 06:59:42;;;;;;;18.67;4.30;;;17.20;99.90;;;;;;5018196;28;20041;-77
2023/07/30 07:02:07;;;;;;;21.02;4.47;;;17.20;99.90;;;;;;5034770;28;20441;-77
2023/07/30 07:04:33;;;;;;;17.58;4.50;;;17.30;99.90;;;;;;5034522;28;20562;-77
2023/07/30 07:06:59;;;;;;;24.55;4.85;;;17.40;99.90;;;;;;5018233;28;20064;-77
2023/07/30 07:09:24;;;;;;;18.27;4.18;;;17.60;99.90;;;;;;5017836;28;20029;-77
2023/07/30 07:11:50;;;;;;;19.80;3.50;;;17.70;99.90;;;;;;5017810;28;20052;-77
2023/07/30 07:14:15;;;;;;;11.98;3.88;;;17.70;99.90;;;;;;5017705;28;20042;-77
2023/07/30 07:16:41;;;;;;;19.77;3.55;;;17.80;99.90;;;;;;5034233;28;20038;-77
2023/07/30 07:19:07;;;;;;;19.42;4.80;;;17.90;99.90;;;;;;5034224;28;20127;-77
2023/07/30 07:21:32;;;;;;;19.58;4.53;;;18.00;99.90;;;;;;5034350;28;20099;-77
2023/07/30 07:23:58;;;;;;;20.25;3.92;;;18.20;99.90;;;;;;5017610;28;20502;-77
2023/07/30 07:26:23;;;;;;;16.80;3.63;;;18.20;99.90;;;;;;5034068;28;20045;-77
2023/07/30 07:28:49;;;;;;;15.57;3.30;;;18.20;99.90;;;;;;5034283;28;20056;-77
2023/07/30 07:31:14;;;;;;;14.68;4.20;;;18.30;99.90;;;;;;5017325;28;20569;-77
2023/07/30 07:33:40;;;;;;;19.30;3.90;;;18.20;99.90;;;;;;5017452;28;20045;-77
2023/07/30 07:36:07;;;;;;;21.05;4.00;;;18.10;99.90;;;;;;5033816;28;20069;-77
2023/07/30 07:38:33;;;;;;;17.98;3.67;;;18.10;99.90;;;;;;5033854;28;20041;-77
2023/07/30 07:41:00;;;;;;;19.52;3.83;;;18.20;99.90;;;;;;5017236;28;20045;-77
2023/07/30 07:43:26;;;;;;;15.50;3.55;;;18.10;99.90;;;;;;5033997;28;20099;-77
2023/07/30 07:45:52;;;;;;;14.68;4.00;;;18.10;99.90;;;;;;5017434;28;20494;-77
2023/07/30 07:48:17;;;;;;;16.40;3.20;;;18.10;99.90;;;;;;5017091;28;20049;-77
2023/07/30 07:50:45;;;;;;;15.70;3.58;;;18.20;99.90;;;;;;5016964;28;20042;-77
2023/07/30 07:53:11;;;;;;;15.85;3.95;;;18.20;99.90;;;;;;5017059;28;20048;-77
2023/07/30 07:55:37;;;;;;;15.73;3.17;;;18.30;99.90;;;;;;5017291;28;20037;-77
2023/07/30 07:58:02;;;;;;;15.85;3.13;;;18.50;99.90;;;;;;5033715;28;20525;-77
2023/07/30 08:00:28;;;;;;;15.13;3.15;;;18.70;99.90;;;;;;5033337;28;20044;-77
2023/07/30 08:02:53;;;;;;;14.38;2.90;;;18.80;99.90;;;;;;5032850;28;20083;-77
2023/07/30 08:05:24;;;;;;;11.68;2.78;;;19.00;99.90;;;;;;5033296;28;20037;-77
2023/07/30 08:07:50;;;;;;;22.05;3.58;;;19.20;99.90;;;;;;5016838;28;20119;-77
2023/07/30 08:10:16;;;;;;;12.68;2.70;;;19.20;99.90;;;;;;5016626;28;20041;-77
2023/07/30 08:12:42;;;;;;;11.82;2.78;;;19.20;99.90;;;;;;5033432;28;20045;-77
2023/07/30 08:15:08;;;;;;;14.32;2.45;;;19.10;99.90;;;;;;5033114;28;20124;-77
2023/07/30 08:17:33;;;;;;;15.52;3.00;;;19.00;99.90;;;;;;5016499;28;20121;-77
2023/07/30 08:19:59;;;;;;;12.90;2.92;;;18.90;99.90;;;;;;5016967;28;20076;-77
2023/07/30 08:22:24;;;;;;;16.88;3.33;;;18.70;99.90;;;;;;5033162;28;20041;-77
2023/07/30 08:24:50;;;;;;;20.30;4.20;;;18.60;99.90;;;;;;5032908;28;20568;-77
2023/07/30 08:27:16;;;;;;;17.75;3.58;;;18.40;99.90;;;;;;5032925;28;20037;-76
2023/07/30 08:29:41;;;;;;;19.95;3.85;;;18.20;99.90;;;;;;5016309;28;20072;-78
2023/07/30 08:32:07;;;;;;;14.68;3.15;;;18.00;99.90;;;;;;5016671;28;20113;-78
2023/07/30 08:34:32;;;;;;;17.55;3.15;;;17.70;99.90;;;;;;5033058;28;20449;-78
2023/07/30 08:36:58;;;;;;;13.55;2.45;;;17.50;99.90;;;;;;5032997;28;20037;-78
2023/07/30 08:39:23;;;;;;;12.35;2.20;;;17.20;99.90;;;;;;5016236;28;20490;-78
2023/07/30 08:41:49;;;;;;;11.25;2.35;;;17.00;99.90;;;;;;5016273;28;20041;-77
2023/07/30 08:44:15;;;;;;;16.77;3.55;;;16.90;99.90;;;;;;5016210;28;20037;-78
2023/07/30 08:46:40;;;;;;;11.20;2.13;;;16.80;99.90;;;;;;5016149;28;20037;-78
2023/07/30 08:49:06;;;;;;;13.13;2.67;;;16.70;99.90;;;;;;5032485;28;20045;-78
2023/07/30 08:51:34;;;;;;;15.32;3.40;;;16.60;99.90;;;;;;5032286;28;20038;-78
2023/07/30 08:54:01;;;;;;;11.60;2.92;;;16.50;99.90;;;;;;5032773;28;20540;-78
2023/07/30 08:56:27;;;;;;;9.35;2.50;;;16.50;99.90;;;;;;5016001;28;20052;-78
2023/07/30 08:58:57;;;;;;;14.77;3.20;;;16.50;99.90;;;;;;5032371;28;20041;-78
2023/07/30 09:01:31;;;;;;;29.98;4.50;;;16.40;99.90;;;;;;5015905;28;20056;-78
2023/07/30 09:04:00;;;;;;;14.23;3.28;;;16.30;99.90;;;;;;5032372;28;20124;-78
2023/07/30 09:06:25;;;;;;;9.63;2.53;;;16.20;99.90;;;;;;5032334;28;20049;-78
2023/07/30 09:08:51;;;;;;;12.00;2.30;;;16.10;99.90;;;;;;5032234;28;20045;-78
2023/07/30 09:11:17;;;;;;;12.38;2.42;;;16.10;99.90;;;;;;5032060;28;20049;-78
2023/07/30 09:13:42;;;;;;;13.50;2.65;;;16.10;99.90;;;;;;5031570;28;20033;-78
2023/07/30 09:16:10;;;;;;;13.77;2.97;;;16.10;99.90;;;;;;5015658;28;20075;-78
2023/07/30 09:18:46;;;;;;;14.02;2.75;;;16.10;99.90;;;;;;5032083;28;20414;-78
2023/07/30 09:21:13;;;;;;;11.43;2.78;;;16.20;99.90;;;;;;5032026;28;20041;-77
2023/07/30 09:23:43;;;;;;;15.82;2.70;;;16.30;99.90;;;;;;5032059;28;20095;-77
2023/07/30 09:26:09;;;;;;;13.90;3.58;;;16.20;99.90;;;;;;5015447;28;20425;-78
2023/07/30 09:28:35;;;;;;;15.60;3.60;;;16.20;99.90;;;;;;5032060;28;20042;-78
2023/07/30 09:31:06;;;;;;;15.43;2.92;;;16.10;99.90;;;;;;5015464;28;20045;-78
2023/07/30 09:33:33;;;;;;;8.85;2.42;;;16.10;99.90;;;;;;5015479;28;20406;-78
2023/07/30 09:36:02;;;;;;;14.45;2.20;;;16.10;99.90;;;;;;5015715;28;20099;-78
2023/07/30 09:38:30;;;;;;;9.55;1.73;;;16.00;99.90;;;;;;5032106;28;20406;-78
2023/07/30 09:41:01;;;;;;;8.65;1.60;;;16.00;99.90;;;;;;5031749;28;20046;-79
2023/07/30 09:43:32;;;;;;;9.80;1.73;;;15.90;99.90;;;;;;5032117;28;20067;-79
2023/07/30 09:46:03;;;;;;;7.72;1.65;;;16.00;99.90;;;;;;5031851;28;20048;-78
2023/07/30 09:48:33;;;;;;;9.35;2.00;;;15.90;99.90;;;;;;5015334;28;20076;-78
2023/07/30 09:51:03;;;;;;;7.97;2.15;;;16.00;99.90;;;;;;5031522;28;20387;-78
2023/07/30 09:53:36;;;;;;;10.85;1.80;;;16.00;99.90;;;;;;5015218;28;20127;-77
2023/07/30 09:56:08;;;;;;;5.22;1.33;;;16.00;99.90;;;;;;5015192;28;20099;-77
2023/07/30 09:58:36;;;;;;;8.50;1.65;;;16.00;99.90;;;;;;5015521;28;20030;-77
2023/07/30 10:01:04;;;;;;;8.25;1.75;;;16.10;99.90;;;;;;5031617;28;20528;-77
2023/07/30 10:03:33;;;;;;;9.98;2.33;;;16.10;99.90;;;;;;5015199;28;20128;-77
2023/07/30 10:06:03;;;;;;;9.30;2.15;;;16.20;99.90;;;;;;5031592;28;20046;-77
2023/07/30 10:08:34;;;;;;;7.85;1.98;;;16.30;99.90;;;;;;5031556;28;20505;-77
2023/07/30 10:11:03;;;;;;;7.53;1.77;;;16.30;99.90;;;;;;5031617;28;20453;-77
2023/07/30 10:13:30;;;;;;;8.13;1.88;;;16.40;99.90;;;;;;5031537;28;20072;-77
2023/07/30 10:15:57;;;;;;;6.68;1.73;;;16.40;99.90;;;;;;5015302;28;20030;-77
2023/07/30 10:18:23;;;;;;;6.95;1.73;;;16.50;99.90;;;;;;5031475;28;20099;-77
2023/07/30 10:20:57;;;;;;;9.70;2.10;;;16.60;99.90;;;;;;5031381;28;20041;-77
2023/07/30 10:23:27;;;;;;;8.20;1.90;;;16.90;99.90;;;;;;5031548;28;20631;-78
2023/07/30 10:25:55;;;;;;;9.65;2.08;;;17.10;99.90;;;;;;5018105;28;20033;-78
2023/07/30 10:28:30;;;;;;;9.23;2.30;;;17.50;99.90;;;;;;5018703;28;20520;-78
2023/07/30 10:30:57;;;;;;;8.88;2.15;;;17.80;99.90;;;;;;5018697;28;20404;-78
2023/07/30 10:33:23;;;;;;;6.03;1.92;;;18.10;99.90;;;;;;5035106;28;20033;-78
2023/07/30 10:35:55;;;;;;;9.57;1.83;;;18.50;99.90;;;;;;5018526;28;20087;-77
2023/07/30 10:38:30;;;;;;;7.47;1.88;;;18.80;99.90;;;;;;5035249;28;20037;-77
2023/07/30 10:41:08;;;;;;;10.93;2.20;;;19.10;99.90;;;;;;5018656;28;20053;-77
2023/07/30 10:43:36;;;;;;;12.07;2.53;;;19.20;99.90;;;;;;5034892;28;20048;-77
2023/07/30 10:46:02;;;;;;;11.75;2.72;;;19.30;99.90;;;;;;5034854;28;20063;-77
2023/07/30 10:48:35;;;;;;;11.15;1.80;;;19.60;99.90;;;;;;5034696;28;20402;-78
2023/07/30 10:51:04;;;;;;;10.93;2.03;;;19.80;99.90;;;;;;5018198;28;20079;-77
2023/07/30 10:53:30;;;;;;;9.20;2.10;;;20.10;99.90;;;;;;5034672;28;20498;-77
2023/07/30 10:56:02;;;;;;;11.77;2.13;;;20.20;99.90;;;;;;5034664;28;20045;-77
2023/07/30 10:58:30;;;;;;;12.65;2.45;;;20.40;99.90;;;;;;5034654;28;20120;-76
2023/07/30 11:00:55;;;;;;;8.88;2.20;;;20.50;99.90;;;;;;5034771;28;20046;-77
2023/07/30 11:03:26;;;;;;;10.82;2.33;;;20.60;99.90;;;;;;5034551;28;20042;-77
2023/07/30 11:05:52;;;;;;;6.85;1.67;;;20.80;99.90;;;;;;5034885;28;20057;-77
2023/07/30 11:08:17;;;;;;;11.45;2.28;;;20.90;99.90;;;;;;5034632;28;20037;-77
2023/07/30 11:10:46;;;;;;;8.40;2.05;;;20.90;99.90;;;;;;5017910;28;20499;-77
2023/07/30 11:13:13;;;;;;;9.93;2.05;;;20.90;99.90;;;;;;5034344;28;20041;-78
2023/07/30 11:15:45;;;;;;;8.52;1.90;;;21.10;99.90;;;;;;5034527;28;20045;-78
2023/07/30 11:18:12;;;;;;;10.15;2.13;;;21.30;99.90;;;;;;5034275;28;20034;-77
2023/07/30 11:20:38;;;;;;;9.00;1.95;;;21.40;99.90;;;;;;5017634;28;20041;-78
2023/07/30 11:23:23;;;;;;;6.15;1.75;;;21.50;99.90;;;;;;5034162;28;20128;-77
2023/07/30 11:25:52;;;;;;;8.02;1.70;;;21.60;99.90;;;;;;5034128;28;20099;-77
2023/07/30 11:28:35;;;;;;;8.90;1.60;;;21.80;99.90;;;;;;5034020;28;20091;-78
2023/07/30 11:31:04;;;;;;;7.57;1.80;;;22.00;99.90;;;;;;5017385;28;20033;-78
2023/07/30 11:33:30;;;;;;;10.15;1.60;;;22.00;99.90;;;;;;5017453;28;20037;-78
2023/07/30 11:35:56;;;;;;;7.35;1.55;;;22.10;99.90;;;;;;5033565;28;20076;-78
2023/07/30 11:38:26;;;;;;;9.05;1.70;;;22.30;99.90;;;;;;5034036;28;20029;-78
2023/07/30 11:40:55;;;;;;;7.50;1.88;;;22.30;99.90;;;;;;5017501;28;20534;-77
2023/07/30 11:43:22;;;;;;;7.03;1.63;;;22.00;98.20;;;;;;5017263;28;20494;-78
2023/07/30 11:45:48;;;;;;;7.63;1.85;;;22.00;99.40;;;;;;5033968;28;20441;-78
2023/07/30 11:48:14;;;;;;;8.05;1.65;;;22.10;99.70;;;;;;5033659;28;20041;-78
2023/07/30 11:50:50;;;;;;;9.95;1.60;;;22.20;98.00;;;;;;5017030;28;20041;-78
2023/07/30 11:53:17;;;;;;;5.72;1.40;;;22.40;99.90;;;;;;5017158;28;20044;-78
2023/07/30 11:55:44;;;;;;;11.45;1.80;;;22.60;98.70;;;;;;5033588;28;20037;-78
2023/07/30 11:58:11;;;;;;;8.93;1.85;;;22.60;97.80;;;;;;5033509;28;20048;-78
2023/07/30 12:00:41;;;;;;;9.40;1.63;;;22.70;96.20;;;;;;5017113;28;20140;-77
2023/07/30 12:03:10;;;;;;;8.18;1.75;;;22.50;94.70;;;;;;5016885;28;20037;-76
2023/07/30 12:05:37;;;;;;;9.10;1.55;;;22.20;95.70;;;;;;5033624;28;20041;-78
2023/07/30 12:08:04;;;;;;;7.85;1.50;;;21.80;93.90;;;;;;5033315;28;20069;-78
2023/07/30 12:10:46;;;;;;;9.27;1.50;;;21.50;94.70;;;;;;5016617;28;20517;-78
2023/07/30 12:13:13;;;;;;;8.33;1.70;;;21.20;96.30;;;;;;5033203;28;20034;-78
2023/07/30 12:15:38;;;;;;;10.50;2.42;;;20.80;98.30;;;;;;5016698;28;20112;-78
2023/07/30 12:18:04;;;;;;;8.48;1.70;;;20.40;99.90;;;;;;5016665;28;20124;-78
2023/07/30 12:20:30;;;;;;;11.05;2.00;;;20.10;99.90;;;;;;5016777;28;20046;-77
2023/07/30 12:22:55;;;;;;;7.65;1.70;;;20.00;99.90;;;;;;5032988;28;20541;-78
2023/07/30 12:25:21;;;;;;;8.07;1.70;;;20.00;99.90;;;;;;5033271;28;20087;-79
2023/07/30 12:27:46;;;;;;;7.07;1.50;;;20.30;99.90;;;;;;5016802;28;20041;-79
2023/07/30 12:30:12;;;;;;;7.70;1.60;;;20.60;99.90;;;;;;5033093;28;20091;-79
2023/07/30 12:32:37;;;;;;;6.15;1.80;;;20.70;99.90;;;;;;5033537;28;20049;-79
2023/07/30 12:35:04;;;;;;;8.43;2.17;;;20.80;99.90;;;;;;5033402;28;20037;-78